Bayonne, New Jersey
Current Conditions -  °F | °C
As of 12:51 AM on Thursday 27 Nov 2014 (Local Time) from KEWR Reporting Station
Overcast Overcast  
Wind Chill: 30°   Ceiling: 7500
Heat Index: 36°   Visibility: 10mi
Dew Point: 32°   Wind: 7mph
Humidity: 86%   Direction: 330°NNW
Pressure: 29.86"   Gusts: NA
Location:  40.67°N, 74.12°W
Report Text: KEWR 270551Z 33006KT 10SM FEW015 SCT050 OVC075 02/00 A2986 RMK AO2 SLP111 931000 4/001 60007 T00220000 10028 20017 53013 $
Loading
Personal Weather Stations






























Interactive Weather Map New forecast layout! Learn more

10-Day Weather Forecast

Advertisements
Track Severe Weather on mobile